createdAt,value
2023-04-06T00:01:52.485Z,12.51
2023-04-06T00:04:37.443Z,12.48
2023-04-06T00:07:10.266Z,12.48
2023-04-06T00:09:43.078Z,12.49
2023-04-06T00:12:25.581Z,12.48
2023-04-06T00:15:11.724Z,12.48
2023-04-06T00:18:05.329Z,12.49
2023-04-06T00:20:40.806Z,12.52
2023-04-06T00:23:17.066Z,12.51
2023-04-06T00:25:49.209Z,12.51
2023-04-06T00:28:38.906Z,12.51
2023-04-06T00:31:18.235Z,12.51
2023-04-06T00:33:56.845Z,12.51
2023-04-06T00:36:29.087Z,12.50
2023-04-06T00:39:02.801Z,12.49
2023-04-06T00:41:37.033Z,12.49
2023-04-06T00:44:15.095Z,12.48
2023-04-06T00:46:52.202Z,12.50
2023-04-06T00:49:31.138Z,12.50
2023-04-06T00:52:10.672Z,12.51
2023-04-06T00:54:56.628Z,12.51
2023-04-06T00:57:33.377Z,12.50
2023-04-06T01:00:06.324Z,12.49
2023-04-06T01:02:45.643Z,12.47
2023-04-06T01:05:37.446Z,12.48
2023-04-06T01:08:10.574Z,12.49
2023-04-06T01:10:48.572Z,12.50
2023-04-06T01:13:26.533Z,12.51
2023-04-06T01:16:24.242Z,12.52
2023-04-06T01:19:28.329Z,12.53
2023-04-06T01:22:01.835Z,12.54
2023-04-06T01:24:45.158Z,12.56
2023-04-06T01:27:31.567Z,12.55
2023-04-06T01:30:30.124Z,12.55
2023-04-06T01:33:17.896Z,12.54
2023-04-06T01:36:10.627Z,12.52
2023-04-06T01:39:16.914Z,12.51
2023-04-06T01:41:53.732Z,12.50
2023-04-06T01:44:26.417Z,12.48
2023-04-06T01:47:18.100Z,12.49
2023-04-06T01:50:08.936Z,12.49
2023-04-06T01:52:44.418Z,12.48
2023-04-06T01:55:18.726Z,12.47
2023-04-06T01:58:32.688Z,12.45
2023-04-06T02:01:05.181Z,12.43
2023-04-06T02:03:48.818Z,12.41
2023-04-06T02:06:36.689Z,12.38
2023-04-06T02:09:17.190Z,12.34
2023-04-06T02:11:51.710Z,12.30
2023-04-06T02:14:27.867Z,12.27
2023-04-06T02:17:04.730Z,12.26
2023-04-06T02:19:37.203Z,12.23
2023-04-06T02:22:22.830Z,12.22
2023-04-06T02:24:55.988Z,12.22
2023-04-06T02:41:32.964Z,12.13
2023-04-06T02:44:42.974Z,12.27
2023-04-06T02:47:22.052Z,12.28
2023-04-06T02:49:59.847Z,12.27
2023-04-06T02:52:33.908Z,12.27
2023-04-06T02:55:13.154Z,12.27
2023-04-06T02:58:03.576Z,12.23
2023-04-06T03:01:36.268Z,12.24
2023-04-06T03:04:15.065Z,12.23
2023-04-06T03:07:22.183Z,12.20
2023-04-06T03:09:59.100Z,12.20
2023-04-06T03:15:52.795Z,12.21
2023-04-06T03:18:36.985Z,12.21
2023-04-06T03:21:17.585Z,12.22
2023-04-06T03:27:03.000Z,12.21
2023-04-06T03:29:45.187Z,12.19
2023-04-06T03:33:10.037Z,12.19
2023-04-06T03:36:03.838Z,12.19
2023-04-06T03:38:53.691Z,12.16
2023-04-06T03:41:33.307Z,12.16
2023-04-06T03:44:14.579Z,12.16
2023-04-06T03:46:46.869Z,12.16
2023-04-06T03:49:21.763Z,12.16
2023-04-06T03:52:14.747Z,12.15
2023-04-06T03:55:35.537Z,12.14
2023-04-06T03:58:10.475Z,12.11
2023-04-06T04:00:49.883Z,12.07
2023-04-06T04:16:35.351Z,12.15
2023-04-06T04:22:22.829Z,12.08
2023-04-06T04:25:15.892Z,12.05
2023-04-06T04:27:57.895Z,12.04
2023-04-06T04:30:30.137Z,12.01
2023-04-06T04:33:03.850Z,12.02
2023-04-06T04:35:55.875Z,12.01
2023-04-06T04:39:04.118Z,12.00
2023-04-06T04:42:06.202Z,11.95
2023-04-06T04:45:30.957Z,11.99
2023-04-06T04:48:02.865Z,12.03
2023-04-06T04:50:48.599Z,12.05
2023-04-06T04:54:12.330Z,12.09
2023-04-06T04:56:59.373Z,12.11
2023-04-06T04:59:58.137Z,12.12
2023-04-06T05:02:36.328Z,12.05
2023-04-06T05:06:24.226Z,12.14
2023-04-06T05:09:01.233Z,12.13
2023-04-06T05:11:42.254Z,12.11
2023-04-06T05:15:07.062Z,12.12
2023-04-06T05:17:56.827Z,12.10
2023-04-06T05:20:36.529Z,12.06
2023-04-06T05:23:30.660Z,12.06
2023-04-06T05:26:22.372Z,12.06
2023-04-06T05:29:00.449Z,12.07
2023-04-06T05:31:42.911Z,12.05
2023-04-06T05:34:19.793Z,12.05
2023-04-06T05:36:54.625Z,12.02
2023-04-06T05:39:45.260Z,12.01
2023-04-06T05:42:23.270Z,12.00
2023-04-06T05:45:24.726Z,11.98
2023-04-06T05:48:01.310Z,11.96
2023-04-06T05:50:39.631Z,11.94
2023-04-06T05:53:18.703Z,11.95
2023-04-06T05:55:58.026Z,11.97
2023-04-06T05:58:36.457Z,11.95
2023-04-06T06:01:19.703Z,11.94
2023-04-06T06:08:37.494Z,11.96
2023-04-06T06:11:34.648Z,12.00
2023-04-06T06:14:38.345Z,12.10
2023-04-06T06:17:12.501Z,12.19
2023-04-06T06:19:51.435Z,12.27
2023-04-06T06:22:23.654Z,12.37
2023-04-06T06:25:14.467Z,12.50
2023-04-06T06:27:48.869Z,12.57
2023-04-06T06:30:47.459Z,12.57
2023-04-06T06:34:11.872Z,12.57
2023-04-06T06:36:57.176Z,12.49
2023-04-06T06:39:28.526Z,12.48
2023-04-06T06:43:02.176Z,12.48
2023-04-06T06:45:55.267Z,12.40
2023-04-06T06:48:30.868Z,12.37
2023-04-06T06:51:50.811Z,12.36
2023-04-06T06:54:22.816Z,12.44
2023-04-06T06:57:05.379Z,12.45
2023-04-06T07:00:02.733Z,12.48
2023-04-06T07:03:04.970Z,12.57
2023-04-06T07:05:37.653Z,12.65
2023-04-06T07:08:53.038Z,12.69
2023-04-06T07:11:44.829Z,12.69
2023-04-06T07:14:41.593Z,12.71
2023-04-06T07:17:27.899Z,12.78
2023-04-06T07:20:09.416Z,12.84
2023-04-06T07:22:50.823Z,12.87
2023-04-06T07:30:31.220Z,13.04
2023-04-06T07:33:13.777Z,13.05
2023-04-06T07:35:47.820Z,13.06
2023-04-06T07:38:24.664Z,13.05
2023-04-06T07:41:03.036Z,13.04
2023-04-06T07:44:00.836Z,13.11
2023-04-06T07:46:41.789Z,13.18
2023-04-06T07:49:28.678Z,13.22
2023-04-06T07:52:16.227Z,13.31
2023-04-06T07:54:55.212Z,13.39
2023-04-06T07:57:33.709Z,13.36
2023-04-06T08:00:15.574Z,13.27
2023-04-06T08:02:53.951Z,13.28
2023-04-06T08:05:30.908Z,13.35
2023-04-06T08:08:23.576Z,13.45
2023-04-06T08:10:52.980Z,13.52
2023-04-06T08:14:01.923Z,13.49
2023-04-06T08:17:01.949Z,13.52
2023-04-06T08:19:46.596Z,13.53
2023-04-06T08:26:12.377Z,13.66
2023-04-06T08:28:59.553Z,13.71
2023-04-06T08:32:08.669Z,13.74
2023-04-06T08:34:47.822Z,13.75
2023-04-06T08:37:27.070Z,13.72
2023-04-06T08:40:07.230Z,13.67
2023-04-06T08:43:21.620Z,13.63
2023-04-06T08:46:43.431Z,13.55
2023-04-06T08:50:32.599Z,13.47
2023-04-06T08:53:10.226Z,13.26
2023-04-06T08:56:18.805Z,13.20
2023-04-06T08:59:05.017Z,13.25
2023-04-06T09:02:03.071Z,13.23
2023-04-06T09:04:57.622Z,13.25
2023-04-06T09:07:41.026Z,13.23
2023-04-06T09:10:53.841Z,13.20
2023-04-06T09:14:00.768Z,13.20
2023-04-06T09:16:50.130Z,13.18
2023-04-06T09:19:57.895Z,13.23
2023-04-06T09:22:43.027Z,13.34
2023-04-06T09:25:50.603Z,13.47
2023-04-06T09:29:06.720Z,13.57
2023-04-06T09:31:44.957Z,13.46
2023-04-06T09:35:21.336Z,13.27
2023-04-06T09:38:12.081Z,13.05
2023-04-06T09:41:01.602Z,12.94
2023-04-06T09:43:48.664Z,12.91
2023-04-06T09:47:00.759Z,12.89
2023-04-06T09:50:52.522Z,12.79
2023-04-06T09:53:47.668Z,12.89
2023-04-06T09:56:44.657Z,12.95
2023-04-06T09:59:46.559Z,13.06
2023-04-06T10:03:39.049Z,13.23
2023-04-06T10:07:18.670Z,13.42
2023-04-06T10:14:57.658Z,13.20
2023-04-06T10:18:26.924Z,13.17
2023-04-06T10:26:27.441Z,13.17
2023-04-06T10:34:35.491Z,13.19
2023-04-06T10:41:53.905Z,13.17
2023-04-06T10:45:13.198Z,13.07
2023-04-06T10:48:49.115Z,13.06
2023-04-06T10:51:32.627Z,13.14
2023-04-06T10:54:35.720Z,13.22
2023-04-06T10:57:20.910Z,13.23
2023-04-06T11:05:36.257Z,13.29
2023-04-06T11:08:13.393Z,13.31
2023-04-06T11:12:08.003Z,13.33
2023-04-06T11:15:22.684Z,13.45
2023-04-06T11:18:43.302Z,13.48
2023-04-06T11:21:58.794Z,13.42
2023-04-06T11:24:41.781Z,13.47
2023-04-06T11:28:12.834Z,13.62
2023-04-06T11:31:37.477Z,13.86
2023-04-06T11:35:14.124Z,13.98
2023-04-06T11:42:51.107Z,13.91
2023-04-06T11:45:26.382Z,13.80
2023-04-06T11:49:00.477Z,13.75
2023-04-06T11:52:36.046Z,13.73
2023-04-06T11:59:39.555Z,13.56
2023-04-06T12:02:23.437Z,13.54
2023-04-06T12:09:42.929Z,13.51
2023-04-06T12:12:13.055Z,13.40
2023-04-06T12:14:54.567Z,13.35
2023-04-06T12:18:11.587Z,13.28
2023-04-06T12:20:49.546Z,13.29
2023-04-06T12:24:44.621Z,13.24
2023-04-06T12:28:53.205Z,13.29
2023-04-06T12:31:49.710Z,13.32
2023-04-06T12:39:28.498Z,13.28
2023-04-06T12:43:31.901Z,13.16
2023-04-06T12:46:15.558Z,13.06
2023-04-06T12:49:00.533Z,13.01
2023-04-06T12:51:50.823Z,12.94
2023-04-06T12:55:30.250Z,12.93
2023-04-06T12:58:10.798Z,12.96
2023-04-06T13:01:18.204Z,12.98
2023-04-06T13:04:20.075Z,13.02
2023-04-06T13:21:01.319Z,12.81
2023-04-06T13:24:09.699Z,12.82
2023-04-06T13:31:47.040Z,12.81
2023-04-06T13:35:35.511Z,12.83
2023-04-06T13:39:20.767Z,12.96
2023-04-06T13:42:27.895Z,13.06
2023-04-06T13:45:12.684Z,13.08
2023-04-06T13:48:10.883Z,13.08
2023-04-06T14:05:02.788Z,12.95
2023-04-06T14:08:32.302Z,12.87
2023-04-06T14:16:37.676Z,12.70
2023-04-06T14:19:17.709Z,12.59
2023-04-06T14:30:41.188Z,12.37
2023-04-06T14:38:34.981Z,12.31
2023-04-06T14:42:23.773Z,12.28
2023-04-06T14:45:12.548Z,12.34
2023-04-06T14:48:37.820Z,12.38
2023-04-06T14:51:42.206Z,12.42
2023-04-06T14:55:14.494Z,12.41
2023-04-06T15:00:35.418Z,12.35
2023-04-06T15:03:35.301Z,12.52
2023-04-06T15:06:48.626Z,12.44
2023-04-06T15:10:19.884Z,12.44
2023-04-06T15:13:24.598Z,12.45
2023-04-06T15:16:02.237Z,12.35
2023-04-06T15:19:18.229Z,12.26
2023-04-06T15:22:40.586Z,12.18
2023-04-06T15:25:28.812Z,12.01
2023-04-06T15:28:33.964Z,11.93
2023-04-06T15:32:41.600Z,11.72
2023-04-06T15:36:06.764Z,11.63
2023-04-06T15:43:16.966Z,11.41
2023-04-06T15:47:17.174Z,11.34
2023-04-06T15:54:23.480Z,11.14
2023-04-06T16:01:50.818Z,10.96
2023-04-06T16:05:07.173Z,10.85
2023-04-06T16:17:15.346Z,10.65
2023-04-06T16:25:37.201Z,10.44
2023-04-06T16:33:24.113Z,10.31
2023-04-06T16:37:15.161Z,10.31
2023-04-06T16:45:23.015Z,10.26
2023-04-06T16:48:15.223Z,10.23
2023-04-06T16:51:28.940Z,10.15
2023-04-06T16:58:28.515Z,10.11
2023-04-06T17:05:24.361Z,9.97
2023-04-06T17:07:52.943Z,9.93
2023-04-06T17:10:28.679Z,9.92
2023-04-06T17:13:04.100Z,9.89
2023-04-06T17:15:32.014Z,9.85
2023-04-06T17:17:59.602Z,9.81
2023-04-06T17:20:30.112Z,9.75
2023-04-06T17:22:58.691Z,9.73
2023-04-06T17:25:34.161Z,9.73
2023-04-06T17:28:03.765Z,9.71
2023-04-06T17:30:32.434Z,9.65
2023-04-06T17:33:02.363Z,9.63
2023-04-06T17:35:29.679Z,9.64
2023-04-06T17:37:57.687Z,9.61
2023-04-06T17:40:25.662Z,9.57
2023-04-06T17:42:54.127Z,9.52
2023-04-06T17:45:21.417Z,9.49
2023-04-06T17:47:50.414Z,9.47
2023-04-06T17:50:18.445Z,9.43
2023-04-06T17:52:46.992Z,9.38
2023-04-06T17:55:22.027Z,9.35
2023-04-06T17:57:50.228Z,9.34
2023-04-06T18:00:19.559Z,9.34
2023-04-06T18:03:05.422Z,9.31
2023-04-06T18:05:36.708Z,9.30
2023-04-06T18:08:03.982Z,9.29
2023-04-06T18:10:37.524Z,9.27
2023-04-06T18:32:23.562Z,8.95
2023-04-06T18:39:40.357Z,8.92
2023-04-06T18:42:27.794Z,8.93
2023-04-06T18:49:58.317Z,8.83
2023-04-06T18:53:19.726Z,8.79
2023-04-06T18:56:23.402Z,8.78
2023-04-06T19:06:51.605Z,8.66
2023-04-06T19:09:56.335Z,8.60
2023-04-06T19:16:56.726Z,8.56
2023-04-06T19:19:26.916Z,8.49
2023-04-06T19:22:04.980Z,8.43
2023-04-06T19:25:44.074Z,8.43
2023-04-06T19:28:20.790Z,8.42
2023-04-06T19:32:08.487Z,8.40
2023-04-06T19:35:00.617Z,8.49
2023-04-06T19:37:33.505Z,8.48
2023-04-06T19:40:33.804Z,8.44
2023-04-06T19:43:09.857Z,8.39
2023-04-06T19:45:47.487Z,8.40
2023-04-06T19:48:23.351Z,8.40
2023-04-06T19:51:18.254Z,8.35
2023-04-06T19:53:58.291Z,8.30
2023-04-06T19:56:34.332Z,8.29
2023-04-06T19:59:17.478Z,8.31
2023-04-06T20:02:00.766Z,8.30
2023-04-06T20:04:38.820Z,8.31
2023-04-06T20:07:13.753Z,8.31
2023-04-06T20:09:52.065Z,8.26
2023-04-06T20:12:26.892Z,8.20
2023-04-06T20:15:04.767Z,8.14
2023-04-06T20:17:39.696Z,8.10
2023-04-06T20:20:11.898Z,8.07
2023-04-06T20:23:09.928Z,8.07
2023-04-06T20:25:44.083Z,8.03
2023-04-06T20:28:25.374Z,8.01
2023-04-06T20:31:06.789Z,8.02
2023-04-06T20:33:47.579Z,8.02
2023-04-06T20:36:29.475Z,8.01
2023-04-06T20:39:14.957Z,8.00
2023-04-06T20:45:26.788Z,7.99
2023-04-06T20:48:18.571Z,7.99
2023-04-06T20:50:57.566Z,8.03
2023-04-06T20:53:57.293Z,8.06
2023-04-06T20:56:33.801Z,8.12
2023-04-06T21:02:49.608Z,8.12
2023-04-06T21:05:22.982Z,8.08
2023-04-06T21:08:04.193Z,8.08
2023-04-06T21:10:54.586Z,8.07
2023-04-06T21:13:46.573Z,8.06
2023-04-06T21:16:28.919Z,8.03
2023-04-06T21:19:20.744Z,7.98
2023-04-06T21:22:04.921Z,8.01
2023-04-06T21:24:45.118Z,8.05
2023-04-06T21:27:23.745Z,8.08
2023-04-06T21:30:03.672Z,8.11
2023-04-06T21:32:35.380Z,8.13
2023-04-06T21:35:12.163Z,8.15
2023-04-06T21:38:11.400Z,8.16
2023-04-06T21:40:43.006Z,8.17
2023-04-06T21:43:15.645Z,8.16
2023-04-06T21:45:51.133Z,8.18
2023-04-06T21:54:42.741Z,8.26
2023-04-06T21:57:15.023Z,8.26
2023-04-06T21:59:53.341Z,8.29
2023-04-06T22:02:30.544Z,8.32
2023-04-06T22:05:27.670Z,8.32
2023-04-06T22:08:04.470Z,8.30
2023-04-06T22:10:35.285Z,8.22
2023-04-06T22:13:25.323Z,8.15
2023-04-06T22:16:05.043Z,8.10
2023-04-06T22:18:56.433Z,8.08
2023-04-06T22:21:37.611Z,8.08
2023-04-06T22:24:13.368Z,8.06
2023-04-06T22:26:50.116Z,8.05
2023-04-06T22:29:21.226Z,8.02
2023-04-06T22:32:07.585Z,8.04
2023-04-06T22:34:54.528Z,8.10
2023-04-06T22:37:28.294Z,8.11
2023-04-06T22:39:59.343Z,8.14
2023-04-06T22:42:39.456Z,8.14
2023-04-06T22:45:14.601Z,8.12
2023-04-06T22:47:46.837Z,8.11
2023-04-06T22:50:23.015Z,8.11
2023-04-06T22:53:06.997Z,8.10
2023-04-06T22:55:38.763Z,8.10
2023-04-06T22:58:10.831Z,8.09
2023-04-06T23:00:47.336Z,8.11
2023-04-06T23:03:28.935Z,8.14
2023-04-06T23:06:35.554Z,8.17
2023-04-06T23:09:11.389Z,8.19
2023-04-06T23:11:45.503Z,8.20
2023-04-06T23:14:15.539Z,8.16
2023-04-06T23:16:56.565Z,8.10
2023-04-06T23:19:27.535Z,8.04
2023-04-06T23:21:59.069Z,7.98
2023-04-06T23:27:15.667Z,7.87
2023-04-06T23:29:54.372Z,7.83
2023-04-06T23:32:28.143Z,7.79
2023-04-06T23:35:06.587Z,7.76
2023-04-06T23:37:41.856Z,7.74
2023-04-06T23:40:19.795Z,7.75
2023-04-06T23:42:55.707Z,7.77
2023-04-06T23:45:37.921Z,7.77
2023-04-06T23:48:12.998Z,7.73
2023-04-06T23:50:45.912Z,7.68
2023-04-06T23:53:22.129Z,7.68
2023-04-06T23:56:02.310Z,7.64
2023-04-06T23:58:31.900Z,7.59
